Time;durP1;ratioP1;P1;durP2;ratioP2;P2;SDS_P1;SDS_P2;PMS_P1;PMS_P2;Temp;Humidity;BMP_temperature;BMP_pressure;BME280_temperature;BME280_humidity;BME280_pressure;Samples;Min_cycle;Max_cycle;Signal;HPM_P1;HPM_P2
2023/03/24 05:04:29;;;;;;;1.60;1.50;;;16.00;94.60;;;;;;5776847;23;20495;-69
2023/03/24 05:06:55;;;;;;;2.20;1.53;;;16.10;94.80;;;;;;4975223;28;20948;-71
2023/03/24 05:09:22;;;;;;;1.83;1.73;;;16.10;94.80;;;;;;4976727;28;20494;-72
2023/03/24 05:11:49;;;;;;;1.90;1.13;;;16.10;95.00;;;;;;4975382;28;20188;-71
2023/03/24 05:14:15;;;;;;;1.60;1.50;;;16.20;95.10;;;;;;4975981;28;20797;-69
2023/03/24 05:16:41;;;;;;;1.47;1.37;;;16.20;95.10;;;;;;4976245;28;20848;-70
2023/03/24 05:19:07;;;;;;;1.20;1.20;;;16.20;95.30;;;;;;4976361;28;20404;-70
2023/03/24 05:21:33;;;;;;;1.23;1.23;;;16.20;95.50;;;;;;4976326;28;20622;-70
2023/03/24 05:23:59;;;;;;;1.07;1.03;;;16.10;95.60;;;;;;4975813;28;20431;-70
2023/03/24 05:26:27;;;;;;;1.53;1.47;;;16.10;95.60;;;;;;4976272;28;20409;-69
2023/03/24 05:28:53;;;;;;;1.63;1.47;;;16.00;95.80;;;;;;4976036;28;20172;-71
2023/03/24 05:31:19;;;;;;;1.57;1.47;;;16.00;96.10;;;;;;4976091;28;20411;-70
2023/03/24 05:33:45;;;;;;;1.47;1.37;;;16.00;96.30;;;;;;4975193;28;20889;-76
2023/03/24 05:36:11;;;;;;;1.20;1.20;;;16.00;96.60;;;;;;4975439;28;20454;-70
2023/03/24 05:38:37;;;;;;;1.70;1.57;;;15.90;96.70;;;;;;4974814;28;20898;-72
2023/03/24 05:41:02;;;;;;;1.50;1.40;;;15.90;97.20;;;;;;4976055;28;20414;-68
2023/03/24 05:43:28;;;;;;;1.47;1.37;;;15.80;97.90;;;;;;4975501;28;20227;-69
2023/03/24 05:45:55;;;;;;;1.53;1.43;;;15.80;98.80;;;;;;4974446;28;20282;-71
2023/03/24 05:48:21;;;;;;;1.77;1.30;;;15.70;99.60;;;;;;4971303;28;20180;-71
2023/03/24 05:50:47;;;;;;;1.80;1.70;;;15.60;99.90;;;;;;4956313;28;20415;-70
2023/03/24 05:53:13;;;;;;;1.63;1.53;;;15.50;99.90;;;;;;4963666;28;20448;-70
2023/03/24 05:55:40;;;;;;;1.63;1.53;;;15.30;99.90;;;;;;4974916;28;20845;-70
2023/03/24 05:58:06;;;;;;;1.90;1.80;;;15.30;99.90;;;;;;4973411;28;20434;-71
2023/03/24 06:00:32;;;;;;;1.40;1.30;;;15.10;99.90;;;;;;4974025;28;20386;-71
2023/03/24 06:02:58;;;;;;;2.20;2.00;;;15.10;99.90;;;;;;4961128;28;20177;-71
2023/03/24 06:05:25;;;;;;;1.97;1.27;;;15.00;99.90;;;;;;4963714;28;20451;-72
2023/03/24 06:07:57;;;;;;;1.30;1.30;;;15.00;99.90;;;;;;4974201;28;20537;-68
2023/03/24 06:10:26;;;;;;;1.77;1.67;;;14.90;99.90;;;;;;4975418;28;20411;-66
2023/03/24 06:12:53;;;;;;;2.00;1.90;;;14.80;99.90;;;;;;4974597;28;20501;-68
2023/03/24 06:15:19;;;;;;;2.13;1.93;;;14.70;99.90;;;;;;4971411;28;20459;-69
2023/03/24 06:17:45;;;;;;;1.90;1.80;;;14.70;99.90;;;;;;4975146;28;20498;-68
2023/03/24 06:20:15;;;;;;;1.87;1.77;;;14.70;99.90;;;;;;4975259;28;20169;-68
2023/03/24 06:22:43;;;;;;;1.60;1.50;;;14.60;99.90;;;;;;4974698;28;20415;-70
2023/03/24 06:25:10;;;;;;;1.93;1.83;;;14.60;99.90;;;;;;4973663;28;20446;-64
2023/03/24 06:27:36;;;;;;;1.77;1.53;;;14.60;99.90;;;;;;4973567;28;20785;-70
2023/03/24 06:30:02;;;;;;;3.07;1.90;;;14.50;99.90;;;;;;4969776;28;20431;-65
2023/03/24 06:32:28;;;;;;;2.40;2.20;;;14.50;99.90;;;;;;4974602;28;20176;-68
2023/03/24 06:34:54;;;;;;;2.43;1.90;;;14.50;99.90;;;;;;4973802;28;20446;-70
2023/03/24 06:37:23;;;;;;;2.87;2.67;;;14.50;99.90;;;;;;4955794;28;20585;-71
2023/03/24 06:39:49;;;;;;;2.17;1.83;;;14.50;99.90;;;;;;4966948;28;20427;-70
2023/03/24 06:42:15;;;;;;;2.67;1.87;;;14.50;99.90;;;;;;4974964;28;20499;-75
2023/03/24 06:44:40;;;;;;;2.03;1.80;;;14.60;99.90;;;;;;4974735;28;20184;-75
2023/03/24 06:47:06;;;;;;;1.90;1.80;;;14.60;99.90;;;;;;4974281;28;20179;-67
2023/03/24 06:49:33;;;;;;;2.47;2.20;;;14.70;99.90;;;;;;4974978;28;20187;-65
2023/03/24 06:52:03;;;;;;;4.50;3.03;;;14.60;99.90;;;;;;4974271;28;20833;-66
2023/03/24 06:54:29;;;;;;;2.53;2.33;;;14.60;99.90;;;;;;4973414;28;20845;-69
2023/03/24 06:56:55;;;;;;;4.53;2.33;;;14.60;99.90;;;;;;4960867;28;20542;-66
2023/03/24 06:59:23;;;;;;;2.87;2.67;;;14.70;99.90;;;;;;4956041;28;20177;-67
2023/03/24 07:01:50;;;;;;;2.00;1.80;;;14.60;99.90;;;;;;4974369;28;20415;-66
2023/03/24 07:04:16;;;;;;;2.50;1.93;;;14.70;99.90;;;;;;4973777;28;20875;-67
2023/03/24 07:06:42;;;;;;;2.03;1.90;;;14.70;99.90;;;;;;4974307;28;20435;-64
2023/03/24 07:09:08;;;;;;;1.83;1.73;;;14.70;99.90;;;;;;4974273;28;20172;-65
2023/03/24 07:11:33;;;;;;;2.30;2.10;;;14.70;99.90;;;;;;4973584;28;20176;-66
2023/03/24 07:13:59;;;;;;;1.50;1.50;;;14.70;99.90;;;;;;4954696;28;20436;-66
2023/03/24 07:16:25;;;;;;;2.20;1.83;;;14.70;99.90;;;;;;4955232;28;20314;-68
2023/03/24 07:18:50;;;;;;;2.30;2.10;;;14.70;99.90;;;;;;4955224;28;20269;-68
2023/03/24 07:21:17;;;;;;;2.10;1.87;;;14.60;99.90;;;;;;4955205;28;20180;-66
2023/03/24 07:23:43;;;;;;;2.50;2.30;;;14.60;99.90;;;;;;4954579;28;20176;-65
2023/03/24 07:26:08;;;;;;;2.03;1.57;;;14.60;99.90;;;;;;4954988;28;20420;-66
2023/03/24 07:28:34;;;;;;;1.67;1.57;;;14.60;99.90;;;;;;4954927;28;20454;-67
2023/03/24 07:31:05;;;;;;;2.90;2.17;;;14.60;99.90;;;;;;4955191;28;20179;-67
2023/03/24 07:33:31;;;;;;;2.30;2.10;;;14.60;99.90;;;;;;4954739;28;20658;-66
2023/03/24 07:35:57;;;;;;;1.90;1.80;;;14.50;99.90;;;;;;4954721;28;20460;-67
2023/03/24 07:38:24;;;;;;;2.00;1.83;;;14.40;99.90;;;;;;4954009;29;20763;-67
2023/03/24 07:40:50;;;;;;;2.00;1.90;;;14.40;99.90;;;;;;4955178;28;20409;-66
2023/03/24 07:43:16;;;;;;;2.60;2.33;;;14.30;99.90;;;;;;4954636;28;20387;-67
2023/03/24 07:45:44;;;;;;;2.07;1.97;;;14.20;99.90;;;;;;4954893;28;20204;-69
2023/03/24 07:48:11;;;;;;;2.13;2.00;;;14.20;99.90;;;;;;4956655;28;20694;-67
2023/03/24 07:50:37;;;;;;;1.87;1.77;;;14.10;99.90;;;;;;4972695;28;20411;-68
2023/03/24 07:53:03;;;;;;;2.27;2.00;;;14.00;99.90;;;;;;4973694;28;20778;-65
2023/03/24 07:55:28;;;;;;;3.00;2.20;;;14.00;99.90;;;;;;4973924;28;20625;-66
2023/03/24 07:57:54;;;;;;;2.20;2.00;;;13.90;99.90;;;;;;4974477;28;20183;-65
2023/03/24 08:00:20;;;;;;;3.93;1.40;;;13.90;99.90;;;;;;4974057;28;20627;-67
2023/03/24 08:02:48;;;;;;;1.90;1.53;;;13.90;99.90;;;;;;4959788;28;20188;-67
2023/03/24 08:05:14;;;;;;;2.00;1.90;;;13.80;99.90;;;;;;4954128;28;20499;-65
2023/03/24 08:07:41;;;;;;;2.30;1.83;;;13.80;99.90;;;;;;4954915;28;20782;-66
2023/03/24 08:10:09;;;;;;;2.37;2.17;;;13.70;99.90;;;;;;4954649;28;20416;-66
2023/03/24 08:12:35;;;;;;;2.43;2.23;;;13.80;99.90;;;;;;4954544;28;20751;-67
2023/03/24 08:15:01;;;;;;;2.60;2.40;;;13.70;99.90;;;;;;4954145;28;20427;-64
2023/03/24 08:17:26;;;;;;;2.90;2.40;;;13.70;99.90;;;;;;4957920;28;20424;-68
2023/03/24 08:19:52;;;;;;;2.23;2.03;;;13.80;99.90;;;;;;4957922;28;20184;-64
2023/03/24 08:22:17;;;;;;;1.90;1.70;;;13.70;99.90;;;;;;4958157;28;20179;-66
2023/03/24 08:24:43;;;;;;;7.30;2.50;;;13.80;99.90;;;;;;4957574;28;20223;-65
2023/03/24 08:27:09;;;;;;;2.60;2.40;;;13.80;99.90;;;;;;4957888;28;20181;-65
2023/03/24 08:29:35;;;;;;;2.50;2.37;;;13.80;99.90;;;;;;4958108;28;20176;-68
2023/03/24 08:32:01;;;;;;;1.90;1.80;;;13.80;99.90;;;;;;4958091;28;20397;-63
2023/03/24 08:34:27;;;;;;;2.50;2.27;;;13.90;99.90;;;;;;4957440;28;20435;-66
2023/03/24 08:36:52;;;;;;;2.33;2.13;;;13.90;99.90;;;;;;4957729;28;20212;-64
2023/03/24 08:39:19;;;;;;;3.07;1.73;;;13.90;99.90;;;;;;4957843;28;20918;-66
2023/03/24 08:41:45;;;;;;;1.90;1.80;;;14.00;99.90;;;;;;4957828;28;20169;-67
2023/03/24 08:44:11;;;;;;;2.10;1.90;;;14.00;99.90;;;;;;4957189;28;20445;-67
2023/03/24 08:46:38;;;;;;;2.40;2.20;;;14.00;99.90;;;;;;4957752;28;20427;-66
2023/03/24 08:49:04;;;;;;;2.00;1.60;;;14.10;99.90;;;;;;4966052;28;20454;-65
2023/03/24 08:51:31;;;;;;;1.73;1.63;;;14.10;99.90;;;;;;4976975;28;20415;-62
2023/03/24 08:53:57;;;;;;;2.20;2.00;;;14.20;99.90;;;;;;4976363;28;20439;-67
2023/03/24 08:56:24;;;;;;;4.00;2.30;;;14.30;99.90;;;;;;4976604;28;20436;-63
2023/03/24 08:58:52;;;;;;;2.27;2.07;;;14.30;99.90;;;;;;4976753;28;20415;-65
2023/03/24 09:01:19;;;;;;;2.40;2.20;;;14.40;99.90;;;;;;4976566;28;21004;-66
2023/03/24 09:03:45;;;;;;;1.90;1.80;;;14.50;99.90;;;;;;4974909;28;20462;-67
2023/03/24 09:06:11;;;;;;;2.10;1.60;;;14.60;99.90;;;;;;4975456;28;21000;-65
2023/03/24 09:08:37;;;;;;;2.30;1.77;;;14.60;99.90;;;;;;4974487;28;20742;-66
2023/03/24 09:11:04;;;;;;;1.70;1.60;;;14.60;99.90;;;;;;4974668;28;20415;-67
2023/03/24 09:13:30;;;;;;;2.60;1.90;;;14.70;99.90;;;;;;4974163;28;20303;-65
2023/03/24 09:16:01;;;;;;;1.63;1.53;;;14.80;99.90;;;;;;4974190;28;20550;-67
2023/03/24 09:18:27;;;;;;;2.53;2.33;;;14.90;99.90;;;;;;4974560;28;20260;-64
2023/03/24 09:20:53;;;;;;;3.40;2.80;;;15.00;99.90;;;;;;4974962;28;20887;-67
2023/03/24 09:23:19;;;;;;;2.80;1.47;;;15.00;99.90;;;;;;4976120;28;20495;-65
2023/03/24 09:25:51;;;;;;;4.73;2.30;;;15.10;99.90;;;;;;4974867;28;20454;-66
2023/03/24 09:28:16;;;;;;;1.90;1.80;;;15.20;99.90;;;;;;4976333;28;20431;-65
2023/03/24 09:30:42;;;;;;;2.30;2.10;;;15.20;99.90;;;;;;4976079;28;20836;-67
2023/03/24 09:33:08;;;;;;;1.63;1.53;;;15.20;99.90;;;;;;4975859;28;20169;-65
2023/03/24 09:35:34;;;;;;;2.00;1.87;;;15.20;99.90;;;;;;4975938;28;20203;-68
2023/03/24 09:38:00;;;;;;;2.13;1.97;;;15.30;99.90;;;;;;4976080;28;20431;-67
2023/03/24 09:40:32;;;;;;;2.07;1.97;;;15.30;99.90;;;;;;4976203;28;20466;-67
2023/03/24 09:43:06;;;;;;;2.00;1.90;;;15.40;99.90;;;;;;4975900;28;20169;-66
2023/03/24 09:45:36;;;;;;;1.87;1.77;;;15.60;99.90;;;;;;4976124;28;20479;-68
2023/03/24 09:48:13;;;;;;;1.80;1.60;;;15.70;99.90;;;;;;4976096;28;20415;-66
2023/03/24 09:50:55;;;;;;;1.90;1.80;;;15.80;99.90;;;;;;4976098;28;20421;-64
2023/03/24 09:53:40;;;;;;;1.63;1.30;;;15.90;99.90;;;;;;4975856;28;20421;-67
2023/03/24 09:56:17;;;;;;;1.40;1.30;;;15.90;99.90;;;;;;4975785;28;20467;-66
2023/03/24 09:58:47;;;;;;;1.80;1.70;;;16.00;99.90;;;;;;4975629;28;20429;-65
2023/03/24 10:01:15;;;;;;;2.50;1.70;;;16.00;99.90;;;;;;4975968;28;20412;-67
2023/03/24 10:03:45;;;;;;;1.20;1.10;;;16.00;99.90;;;;;;4975218;28;20776;-65
2023/03/24 10:06:24;;;;;;;1.97;1.80;;;16.10;99.90;;;;;;4975451;28;20507;-66
2023/03/24 10:09:16;;;;;;;1.33;1.33;;;16.20;99.90;;;;;;4975460;28;20403;-67
2023/03/24 10:11:47;;;;;;;3.30;1.70;;;16.40;99.90;;;;;;4975675;28;20415;-64
2023/03/24 10:14:32;;;;;;;2.47;1.80;;;16.60;99.90;;;;;;4973750;28;20442;-67
2023/03/24 10:17:11;;;;;;;1.40;1.30;;;16.90;99.90;;;;;;4975488;28;20476;-64
2023/03/24 10:19:54;;;;;;;2.03;1.53;;;17.10;99.90;;;;;;4975344;28;20407;-67
2023/03/24 10:22:36;;;;;;;2.67;1.30;;;17.20;99.90;;;;;;4975225;28;20416;-67
2023/03/24 10:25:20;;;;;;;1.50;1.43;;;17.20;99.90;;;;;;4974999;28;20486;-65
2023/03/24 10:27:50;;;;;;;1.83;1.73;;;17.30;99.90;;;;;;4975474;28;20462;-64
2023/03/24 10:30:25;;;;;;;2.53;1.67;;;17.30;99.90;;;;;;4975139;28;20387;-67
2023/03/24 10:32:51;;;;;;;1.73;1.63;;;17.10;99.90;;;;;;4975084;28;20796;-66
2023/03/24 10:35:25;;;;;;;2.13;1.80;;;17.00;99.90;;;;;;4974632;28;20505;-66
2023/03/24 10:37:53;;;;;;;1.20;1.10;;;17.00;99.90;;;;;;4975003;28;20210;-64
2023/03/24 10:40:25;;;;;;;2.83;2.53;;;17.00;99.90;;;;;;4974701;28;20766;-65
2023/03/24 10:42:51;;;;;;;1.50;1.40;;;16.90;99.90;;;;;;4974740;28;20418;-66
2023/03/24 10:45:30;;;;;;;1.80;1.43;;;16.80;99.90;;;;;;4974617;28;20971;-65
2023/03/24 10:47:59;;;;;;;1.50;1.40;;;16.80;99.90;;;;;;4975121;28;20403;-66
2023/03/24 10:50:28;;;;;;;1.53;1.43;;;16.80;99.90;;;;;;4955546;28;20419;-70
2023/03/24 10:52:57;;;;;;;1.80;1.70;;;16.80;99.90;;;;;;4955691;28;20422;-66
2023/03/24 10:55:37;;;;;;;1.90;1.67;;;16.80;99.90;;;;;;4954172;28;20547;-64
2023/03/24 10:58:14;;;;;;;1.17;1.10;;;16.80;99.90;;;;;;4955526;28;20422;-64
2023/03/24 11:00:43;;;;;;;1.40;1.40;;;16.80;99.90;;;;;;4955431;28;20408;-69
2023/03/24 11:03:20;;;;;;;1.07;1.07;;;16.90;99.90;;;;;;4954908;28;20415;-66
2023/03/24 11:05:46;;;;;;;2.40;1.60;;;16.90;99.90;;;;;;4955212;28;20462;-67
2023/03/24 11:08:31;;;;;;;0.90;0.90;;;16.90;99.90;;;;;;4955358;28;20423;-67
2023/03/24 11:10:57;;;;;;;1.40;1.30;;;17.00;99.90;;;;;;4955350;28;20420;-68
2023/03/24 11:13:28;;;;;;;0.90;0.90;;;17.00;99.90;;;;;;4954974;28;20776;-64
2023/03/24 11:16:09;;;;;;;17.53;1.00;;;17.00;99.90;;;;;;4955009;28;20470;-68
2023/03/24 11:18:34;;;;;;;1.50;1.40;;;17.10;99.90;;;;;;4955394;28;20390;-65
2023/03/24 11:21:05;;;;;;;1.40;1.13;;;17.20;99.90;;;;;;4955235;28;20411;-65
2023/03/24 11:23:39;;;;;;;0.83;0.83;;;17.20;99.90;;;;;;4954911;28;20200;-67
2023/03/24 11:26:12;;;;;;;0.87;0.87;;;17.50;99.90;;;;;;4955269;28;20738;-65
2023/03/24 11:28:41;;;;;;;1.10;1.00;;;17.70;99.90;;;;;;4955451;28;20400;-65
2023/03/24 11:31:17;;;;;;;0.83;0.83;;;17.80;99.90;;;;;;4955094;28;20400;-65
2023/03/24 11:34:15;;;;;;;1.03;1.00;;;17.90;99.90;;;;;;4953236;28;20408;-67
2023/03/24 11:36:57;;;;;;;0.80;0.80;;;17.90;99.90;;;;;;4952880;29;20481;-66
2023/03/24 11:39:28;;;;;;;1.10;1.00;;;17.90;99.90;;;;;;4955035;28;20413;-66
2023/03/24 11:42:09;;;;;;;1.10;1.07;;;17.90;99.90;;;;;;4955217;28;20500;-65
2023/03/24 11:44:37;;;;;;;0.73;0.73;;;17.80;99.90;;;;;;4954785;28;20479;-65
2023/03/24 11:47:26;;;;;;;1.07;0.97;;;17.90;99.90;;;;;;4954938;28;20907;-66
2023/03/24 11:50:12;;;;;;;0.80;0.80;;;17.90;99.90;;;;;;4970039;28;20419;-67
2023/03/24 11:53:17;;;;;;;1.77;0.90;;;17.80;99.90;;;;;;4978314;28;20415;-68
2023/03/24 11:55:53;;;;;;;0.80;0.80;;;17.70;99.90;;;;;;4936928;29;20461;-68
2023/03/24 11:58:50;;;;;;;1.20;1.10;;;17.60;99.90;;;;;;4972221;28;20424;-64
2023/03/24 12:01:31;;;;;;;0.87;0.80;;;17.50;99.90;;;;;;4977526;28;20402;-68
2023/03/24 12:04:48;;;;;;;0.80;0.70;;;17.30;99.90;;;;;;4977680;28;20436;-69
2023/03/24 12:07:41;;;;;;;0.80;0.80;;;17.20;99.90;;;;;;4955602;28;20507;-68
2023/03/24 12:10:26;;;;;;;0.70;0.70;;;17.00;99.90;;;;;;4976555;28;20926;-68
2023/03/24 12:13:03;;;;;;;0.73;0.73;;;17.00;99.90;;;;;;4976789;28;20426;-64
2023/03/24 12:15:38;;;;;;;0.67;0.50;;;17.00;99.90;;;;;;4976720;28;20450;-66
2023/03/24 12:18:14;;;;;;;1.07;0.70;;;17.10;99.90;;;;;;4977354;28;20822;-65
2023/03/24 12:21:11;;;;;;;0.60;0.60;;;17.10;99.90;;;;;;4977652;28;20448;-68
2023/03/24 12:23:57;;;;;;;0.53;0.53;;;17.20;99.90;;;;;;4976846;28;20414;-66
2023/03/24 12:26:30;;;;;;;0.50;0.50;;;17.20;99.90;;;;;;4977017;28;20866;-64
2023/03/24 12:29:20;;;;;;;0.70;0.60;;;17.30;99.90;;;;;;4977022;28;20413;-65
2023/03/24 12:32:00;;;;;;;0.70;0.70;;;17.20;99.50;;;;;;4958113;28;20426;-65
2023/03/24 12:34:53;;;;;;;0.93;0.90;;;17.20;99.70;;;;;;4957667;28;20829;-65
2023/03/24 12:37:56;;;;;;;0.70;0.70;;;17.20;99.30;;;;;;4958515;28;20463;-68
2023/03/24 12:40:51;;;;;;;0.60;0.60;;;17.10;99.10;;;;;;4958609;28;20405;-69
2023/03/24 12:43:49;;;;;;;0.60;0.60;;;16.90;99.00;;;;;;4959377;28;20432;-68
2023/03/24 12:46:39;;;;;;;0.63;0.63;;;16.90;99.30;;;;;;4960153;28;20427;-69
2023/03/24 12:49:26;;;;;;;0.40;0.40;;;16.80;99.20;;;;;;4959865;28;20483;-66
2023/03/24 12:52:18;;;;;;;0.63;0.63;;;16.80;99.30;;;;;;4979211;28;20422;-66
2023/03/24 12:55:03;;;;;;;1.03;0.93;;;16.80;99.40;;;;;;4976691;28;20548;-65
2023/03/24 12:57:35;;;;;;;1.50;0.70;;;16.70;99.70;;;;;;4977017;28;20728;-66
2023/03/24 13:00:25;;;;;;;0.50;0.50;;;16.70;99.90;;;;;;4977069;28;20418;-67
2023/03/24 13:02:57;;;;;;;0.63;0.63;;;16.60;99.80;;;;;;4976184;28;20445;-66
2023/03/24 13:05:32;;;;;;;0.67;0.67;;;16.60;99.90;;;;;;4976208;28;20463;-66
2023/03/24 13:08:04;;;;;;;0.40;0.40;;;16.50;99.90;;;;;;4976601;28;20442;-66
2023/03/24 13:10:39;;;;;;;0.50;0.50;;;16.50;99.90;;;;;;4976680;28;20450;-67
2023/03/24 13:13:21;;;;;;;0.57;0.57;;;16.40;99.90;;;;;;4976476;28;20411;-65
2023/03/24 13:15:52;;;;;;;1.00;0.80;;;16.40;99.90;;;;;;4976556;28;20497;-68
2023/03/24 13:18:28;;;;;;;0.70;0.70;;;16.40;99.90;;;;;;4976652;28;20466;-65
2023/03/24 13:21:17;;;;;;;0.60;0.60;;;16.50;99.90;;;;;;4976352;28;20432;-66
2023/03/24 13:23:50;;;;;;;0.60;0.60;;;16.50;99.90;;;;;;4975958;28;20399;-67
2023/03/24 13:26:34;;;;;;;0.43;0.40;;;16.60;99.90;;;;;;4976494;28;20417;-67
2023/03/24 13:29:03;;;;;;;0.63;0.63;;;16.70;99.90;;;;;;4976408;28;20405;-65
2023/03/24 13:31:54;;;;;;;0.60;0.60;;;16.70;99.90;;;;;;4976255;28;20910;-65
2023/03/24 13:34:30;;;;;;;1.80;0.60;;;16.70;99.90;;;;;;4975711;28;20443;-63
2023/03/24 13:37:11;;;;;;;0.60;0.60;;;16.60;99.90;;;;;;4976177;28;20467;-67
2023/03/24 13:39:37;;;;;;;0.50;0.50;;;16.50;99.90;;;;;;4976176;28;20776;-64
2023/03/24 13:42:04;;;;;;;0.87;0.87;;;16.50;99.90;;;;;;4976024;28;20735;-66
2023/03/24 13:44:39;;;;;;;2.10;1.10;;;16.40;99.90;;;;;;4975499;28;20433;-67
2023/03/24 13:47:16;;;;;;;0.63;0.63;;;16.00;99.90;;;;;;4976064;28;20465;-66
2023/03/24 13:50:03;;;;;;;0.80;0.80;;;15.60;99.90;;;;;;4975521;28;20429;-63
2023/03/24 13:52:38;;;;;;;0.83;0.70;;;15.10;99.90;;;;;;4975578;28;20427;-66
2023/03/24 13:55:12;;;;;;;1.23;0.60;;;14.50;99.90;;;;;;4975083;28;20441;-63
2023/03/24 13:57:50;;;;;;;1.00;1.00;;;14.10;99.90;;;;;;4975811;28;20419;-66
2023/03/24 14:00:21;;;;;;;0.60;0.60;;;13.80;99.90;;;;;;4975793;28;20418;-63
2023/03/24 14:02:49;;;;;;;0.73;0.73;;;13.50;99.90;;;;;;4975525;28;20419;-64
2023/03/24 14:05:31;;;;;;;0.80;0.80;;;13.40;99.90;;;;;;4974666;28;20548;-66
2023/03/24 14:07:59;;;;;;;0.93;0.90;;;13.30;99.90;;;;;;4976181;28;20420;-64
2023/03/24 14:10:25;;;;;;;0.67;0.67;;;13.30;99.90;;;;;;4975577;28;20866;-64
2023/03/24 14:12:57;;;;;;;0.70;0.70;;;13.20;99.90;;;;;;4975022;28;20407;-65
2023/03/24 14:15:50;;;;;;;1.93;0.90;;;13.20;99.90;;;;;;4974913;28;20284;-66
2023/03/24 14:18:21;;;;;;;2.83;0.80;;;13.20;99.90;;;;;;4973817;28;20420;-64
2023/03/24 14:20:56;;;;;;;1.00;0.77;;;13.20;99.90;;;;;;4975294;28;20469;-65
2023/03/24 14:23:41;;;;;;;0.93;0.90;;;13.30;99.90;;;;;;4974989;28;20436;-63
2023/03/24 14:26:27;;;;;;;0.77;0.77;;;13.30;99.90;;;;;;4975335;28;20426;-65
2023/03/24 14:28:54;;;;;;;1.57;0.90;;;13.30;99.90;;;;;;4975103;28;20413;-67
2023/03/24 14:31:28;;;;;;;0.70;0.70;;;13.40;99.90;;;;;;4975186;28;20406;-65
2023/03/24 14:33:53;;;;;;;0.60;0.60;;;13.40;99.90;;;;;;4974565;28;20925;-66
2023/03/24 14:36:29;;;;;;;1.13;0.67;;;13.40;99.90;;;;;;4975021;28;20532;-64
2023/03/24 14:39:05;;;;;;;0.73;0.67;;;13.40;99.90;;;;;;4975058;28;20181;-64
2023/03/24 14:41:37;;;;;;;0.80;0.50;;;13.30;99.90;;;;;;4974880;28;20418;-63
2023/03/24 14:44:04;;;;;;;0.83;0.77;;;13.20;99.90;;;;;;4974385;28;20470;-66
2023/03/24 14:46:40;;;;;;;0.57;0.57;;;13.10;99.90;;;;;;4974761;28;20446;-63
2023/03/24 14:49:25;;;;;;;1.40;0.70;;;13.00;99.90;;;;;;4974915;28;20447;-68
2023/03/24 14:52:02;;;;;;;0.50;0.50;;;12.90;99.90;;;;;;4974852;28;20500;-65
2023/03/24 14:55:04;;;;;;;1.30;0.60;;;12.80;99.90;;;;;;4974531;28;20440;-65
2023/03/24 14:57:55;;;;;;;0.60;0.57;;;12.60;99.90;;;;;;4974473;28;20791;-65
2023/03/24 15:00:43;;;;;;;1.60;0.70;;;12.60;99.90;;;;;;4964698;28;20410;-67
2023/03/24 15:03:30;;;;;;;0.70;0.70;;;12.40;99.90;;;;;;4974163;28;20406;-65
2023/03/24 15:06:23;;;;;;;0.95;0.85;;;12.30;99.90;;;;;;4974303;28;20983;-64
2023/03/24 15:08:53;;;;;;;1.23;0.70;;;12.20;99.90;;;;;;4974567;28;20196;-67
2023/03/24 15:11:28;;;;;;;1.00;0.90;;;12.20;99.90;;;;;;4974710;28;20565;-63
2023/03/24 15:13:59;;;;;;;0.70;0.70;;;12.20;99.90;;;;;;4957359;28;20715;-65
2023/03/24 15:16:31;;;;;;;1.60;0.53;;;12.20;99.90;;;;;;4974219;28;20993;-64
2023/03/24 15:19:04;;;;;;;0.50;0.50;;;12.20;99.90;;;;;;4974664;28;20471;-65
2023/03/24 15:21:47;;;;;;;2.00;1.27;;;12.10;99.90;;;;;;4974598;28;20501;-64
2023/03/24 15:24:26;;;;;;;0.67;0.67;;;12.10;99.90;;;;;;4974243;28;20430;-66
2023/03/24 15:26:55;;;;;;;0.97;0.73;;;12.00;99.90;;;;;;4978519;28;20413;-65
2023/03/24 15:29:21;;;;;;;0.53;0.53;;;12.10;99.90;;;;;;4977180;28;20417;-63
2023/03/24 15:31:48;;;;;;;0.97;0.60;;;12.00;99.90;;;;;;4978343;28;20425;-65
2023/03/24 15:34:35;;;;;;;2.87;0.70;;;12.00;99.90;;;;;;4977988;28;20543;-66
2023/03/24 15:37:06;;;;;;;0.50;0.50;;;12.00;99.90;;;;;;4978474;28;20868;-66
2023/03/24 15:39:35;;;;;;;0.83;0.83;;;11.90;99.90;;;;;;4978168;28;20417;-65
2023/03/24 15:42:07;;;;;;;3.27;1.90;;;11.90;99.90;;;;;;4978407;28;20500;-66
2023/03/24 15:44:39;;;;;;;1.03;0.80;;;11.90;99.90;;;;;;4977481;28;20520;-64
2023/03/24 15:47:18;;;;;;;0.50;0.50;;;11.90;99.90;;;;;;4978064;28;20412;-67
2023/03/24 15:49:56;;;;;;;0.80;0.80;;;11.90;99.90;;;;;;4976708;28;20186;-67
2023/03/24 15:52:34;;;;;;;0.93;0.87;;;11.90;99.90;;;;;;4978071;28;20498;-66
2023/03/24 15:55:21;;;;;;;1.00;1.00;;;12.00;99.90;;;;;;4976448;28;20950;-64
2023/03/24 15:57:47;;;;;;;1.30;1.07;;;12.00;99.90;;;;;;4977826;28;20442;-63
2023/03/24 16:00:22;;;;;;;0.70;0.70;;;12.00;99.90;;;;;;4977974;28;20491;-65
2023/03/24 16:02:52;;;;;;;0.82;0.70;;;12.10;99.90;;;;;;4977844;28;20183;-63
2023/03/24 16:05:22;;;;;;;1.05;0.95;;;12.20;99.90;;;;;;4977572;28;20241;-65
2023/03/24 16:08:05;;;;;;;0.70;0.70;;;12.20;99.90;;;;;;4977903;28;20599;-66
2023/03/24 16:10:41;;;;;;;0.80;0.80;;;12.20;99.90;;;;;;4977779;28;20768;-65
2023/03/24 16:13:20;;;;;;;1.33;1.00;;;12.30;99.90;;;;;;4977144;28;20466;-64
2023/03/24 16:15:47;;;;;;;0.83;0.83;;;12.30;99.90;;;;;;4977027;28;20465;-65
2023/03/24 16:18:31;;;;;;;0.80;0.60;;;12.30;99.90;;;;;;4977734;28;20409;-63
2023/03/24 16:21:02;;;;;;;0.60;0.60;;;12.40;99.90;;;;;;4977605;28;20404;-65
2023/03/24 16:23:29;;;;;;;0.73;0.73;;;12.40;99.90;;;;;;4977225;28;20501;-68
2023/03/24 16:25:54;;;;;;;5.70;1.08;;;12.40;99.90;;;;;;4977493;28;20453;-64
2023/03/24 16:28:22;;;;;;;0.77;0.73;;;12.40;99.90;;;;;;4977346;28;20631;-66
2023/03/24 16:31:14;;;;;;;0.90;0.90;;;12.50;99.90;;;;;;4976710;28;20270;-67
2023/03/24 16:33:40;;;;;;;0.80;0.77;;;12.50;99.90;;;;;;4975570;28;20839;-68
2023/03/24 16:36:08;;;;;;;0.90;0.67;;;12.50;99.90;;;;;;4976643;28;20469;-65
2023/03/24 16:38:34;;;;;;;0.53;0.53;;;12.60;99.90;;;;;;4976971;28;20185;-67
2023/03/24 16:40:59;;;;;;;0.83;0.80;;;12.70;99.90;;;;;;4977281;28;20414;-68
2023/03/24 16:43:26;;;;;;;1.10;0.87;;;12.70;99.90;;;;;;4976803;28;20179;-66
2023/03/24 16:45:53;;;;;;;0.50;0.50;;;12.70;99.90;;;;;;4977075;28;20575;-66
2023/03/24 16:48:18;;;;;;;0.63;0.63;;;12.80;99.90;;;;;;4977241;28;20906;-65
2023/03/24 16:50:48;;;;;;;0.90;0.90;;;12.80;99.90;;;;;;4975658;28;20425;-67
2023/03/24 16:53:14;;;;;;;0.80;0.77;;;12.80;99.90;;;;;;4976378;28;20188;-63
2023/03/24 16:55:41;;;;;;;1.57;1.47;;;12.80;99.90;;;;;;4976941;28;20866;-66
2023/03/24 16:58:07;;;;;;;1.83;1.73;;;12.90;99.90;;;;;;4976965;28;20755;-65
2023/03/24 17:00:35;;;;;;;1.70;1.60;;;12.90;99.90;;;;;;4976755;28;20418;-65
2023/03/24 17:03:03;;;;;;;1.33;1.13;;;12.90;99.90;;;;;;4975067;28;20427;-64
2023/03/24 17:05:33;;;;;;;1.70;1.60;;;12.90;99.90;;;;;;4976557;28;20437;-67
2023/03/24 17:07:58;;;;;;;1.70;1.60;;;13.00;99.90;;;;;;4976692;28;20520;-64
2023/03/24 17:10:25;;;;;;;1.30;1.20;;;12.90;99.90;;;;;;4976874;28;20928;-65
2023/03/24 17:12:53;;;;;;;0.73;0.73;;;13.00;99.90;;;;;;4976541;28;20641;-67
2023/03/24 17:15:25;;;;;;;1.40;1.30;;;12.90;99.90;;;;;;4976188;28;20935;-64
2023/03/24 17:17:51;;;;;;;0.80;0.70;;;12.90;99.90;;;;;;4976477;28;20406;-64
2023/03/24 17:20:17;;;;;;;0.97;0.80;;;12.90;99.90;;;;;;4976688;28;20453;-66
2023/03/24 17:22:44;;;;;;;0.87;0.60;;;12.80;99.90;;;;;;4976265;28;20417;-65
2023/03/24 17:25:13;;;;;;;0.90;0.90;;;12.70;99.90;;;;;;4975967;28;20498;-66
2023/03/24 17:27:39;;;;;;;2.13;1.40;;;12.70;99.90;;;;;;4976280;28;20820;-69
2023/03/24 17:30:06;;;;;;;1.27;1.00;;;12.60;99.90;;;;;;4976207;28;20421;-64
2023/03/24 17:32:32;;;;;;;1.10;1.00;;;12.50;99.90;;;;;;4976131;28;20405;-64
2023/03/24 17:35:00;;;;;;;1.27;0.70;;;12.40;99.90;;;;;;4975813;28;20441;-65
2023/03/24 17:37:27;;;;;;;1.05;1.05;;;12.30;99.90;;;;;;4975885;28;20544;-65
2023/03/24 17:39:55;;;;;;;1.20;1.10;;;12.30;99.90;;;;;;4976138;28;20197;-66
2023/03/24 17:42:21;;;;;;;1.37;1.17;;;12.20;99.90;;;;;;4975954;28;20181;-66
2023/03/24 17:44:46;;;;;;;1.00;1.00;;;12.10;99.90;;;;;;4975683;28;20433;-66
2023/03/24 17:47:12;;;;;;;1.10;1.00;;;12.10;99.90;;;;;;4976011;28;20418;-66
2023/03/24 17:49:38;;;;;;;0.70;0.70;;;12.10;99.90;;;;;;4974964;28;20256;-64
2023/03/24 17:52:03;;;;;;;0.73;0.73;;;12.10;99.90;;;;;;4975709;28;20185;-64
2023/03/24 17:54:29;;;;;;;0.70;0.70;;;12.10;99.90;;;;;;4975282;28;20251;-66
2023/03/24 17:56:55;;;;;;;0.87;0.87;;;12.00;99.90;;;;;;4975875;28;20204;-68
2023/03/24 17:59:21;;;;;;;1.40;1.30;;;12.00;99.90;;;;;;4975774;28;20172;-64
2023/03/24 18:01:46;;;;;;;0.87;0.87;;;12.00;99.90;;;;;;4974902;28;20700;-66
2023/03/24 18:04:12;;;;;;;1.13;0.93;;;11.90;99.90;;;;;;4975159;28;20435;-65
2023/03/24 18:06:40;;;;;;;1.20;1.07;;;11.90;99.90;;;;;;4975249;28;20551;-65
2023/03/24 18:09:07;;;;;;;1.00;1.00;;;11.80;99.90;;;;;;4975388;28;20411;-65
2023/03/24 18:11:33;;;;;;;0.90;0.90;;;11.80;99.90;;;;;;4973670;28;20193;-64
2023/03/24 18:13:59;;;;;;;3.05;1.88;;;11.70;99.90;;;;;;4974719;28;20226;-66
2023/03/24 18:16:29;;;;;;;1.70;1.20;;;11.70;99.90;;;;;;4975477;28;20217;-63